Terminal Aerodrome Forecast
Issued by NWS

Home | Current Version | Previous Version | Text Only | Print | Product List | Glossary On
Versions: 1 2 3 4 5 6 7 8 9 10 11 12 13 14 15 16 17 18 19 20 21 22 23 24 25 26 27 28 29 30 31
000
FTUS42 KCAE 250500
TAFOGB
TAF
KOGB 250520Z 2506/2606 VRB03KT P6SM SCT250
     FM250900 16004KT 3SM BR BKN015
     FM251400 21012KT P6SM SCT025 BKN100
     FM251700 25015G25KT P6SM BKN035
     FM252300 28010KT P6SM SKC=

USA.gov is the U.S. government's official web portal to all federal, state and local government web resources and services.